Time;durP1;ratioP1;P1;durP2;ratioP2;P2;SDS_P1;SDS_P2;PMS_P1;PMS_P2;Temp;Humidity;BMP_temperature;BMP_pressure;BME280_temperature;BME280_humidity;BME280_pressure;Samples;Min_cycle;Max_cycle;Signal;HPM_P1;HPM_P2
2023/04/06 00:00:24;;;;;;;0.20;0.20;;;;;;;;;;5054578;28;20424;-64
2023/04/06 00:02:51;;;;;;;0.20;0.20;;;;;;;;;;5076861;28;20218;-64
2023/04/06 00:05:18;;;;;;;0.20;0.20;;;;;;;;;;5054190;28;20213;-64
2023/04/06 00:07:45;;;;;;;0.10;0.10;;;;;;;;;;5077409;28;20206;-63
2023/04/06 00:10:11;;;;;;;0.20;0.20;;;;;;;;;;5053134;28;20231;-64
2023/04/06 00:12:38;;;;;;;0.20;0.20;;;;;;;;;;5077847;28;20211;-64
2023/04/06 00:15:05;;;;;;;0.20;0.20;;;;;;;;;;5063279;28;20233;-64
2023/04/06 00:17:33;;;;;;;0.20;0.20;;;;;;;;;;5051665;28;20211;-63
2023/04/06 00:19:59;;;;;;;0.20;0.20;;;;;;;;;;5063239;28;20406;-63
2023/04/06 00:22:26;;;;;;;0.20;0.20;;;;;;;;;;5068178;28;20254;-63
2023/04/06 00:24:52;;;;;;;0.20;0.20;;;;;;;;;;5062938;28;20206;-63
2023/04/06 00:27:19;;;;;;;0.20;0.20;;;;;;;;;;5068187;28;20308;-63
2023/04/06 00:29:45;;;;;;;0.20;0.20;;;;;;;;;;5062788;28;20235;-63
2023/04/06 00:32:12;;;;;;;0.20;0.20;;;;;;;;;;5071265;28;20261;-63
2023/04/06 00:34:39;;;;;;;0.20;0.20;;;;;;;;;;5066554;28;20399;-64
2023/04/06 00:37:06;;;;;;;0.20;0.20;;;;;;;;;;5071590;28;20241;-63
2023/04/06 00:39:32;;;;;;;0.20;0.20;;;;;;;;;;5066816;28;20262;-64
2023/04/06 00:42:00;;;;;;;0.20;0.20;;;;;;;;;;5070664;28;20625;-64
2023/04/06 00:44:26;;;;;;;0.20;0.20;;;;;;;;;;5067092;28;20296;-64
2023/04/06 00:46:52;;;;;;;0.20;0.20;;;;;;;;;;5069757;28;20245;-63
2023/04/06 00:49:19;;;;;;;0.20;0.20;;;;;;;;;;5068262;28;20224;-63
2023/04/06 00:51:47;;;;;;;0.20;0.20;;;;;;;;;;5068686;28;20238;-64
2023/04/06 00:54:13;;;;;;;0.20;0.20;;;;;;;;;;5068774;28;20250;-63
2023/04/06 00:56:40;;;;;;;0.20;0.20;;;;;;;;;;5067945;28;20239;-64
2023/04/06 00:59:06;;;;;;;0.20;0.20;;;;;;;;;;5069871;28;20369;-64
2023/04/06 01:01:33;;;;;;;0.20;0.20;;;;;;;;;;5066701;28;20246;-64
2023/04/06 01:03:59;;;;;;;0.10;0.10;;;;;;;;;;5070470;28;20254;-63
2023/04/06 01:06:26;;;;;;;0.20;0.20;;;;;;;;;;5065377;28;20574;-64
2023/04/06 01:08:54;;;;;;;0.20;0.20;;;;;;;;;;5071568;28;20231;-63
2023/04/06 01:11:20;;;;;;;0.20;0.20;;;;;;;;;;5064947;28;20302;-64
2023/04/06 01:13:47;;;;;;;0.20;0.20;;;;;;;;;;5071861;28;20239;-63
2023/04/06 01:16:13;;;;;;;0.20;0.20;;;;;;;;;;5064249;28;20651;-63
2023/04/06 01:18:40;;;;;;;0.20;0.20;;;;;;;;;;5072734;28;20556;-64
2023/04/06 01:21:09;;;;;;;0.20;0.20;;;;;;;;;;5062967;28;20241;-64
2023/04/06 01:23:37;;;;;;;0.10;0.10;;;;;;;;;;5073324;28;20419;-64
2023/04/06 01:26:04;;;;;;;0.20;0.20;;;;;;;;;;5062698;28;20242;-64
2023/04/06 01:28:31;;;;;;;0.20;0.20;;;;;;;;;;5073685;28;20260;-63
2023/04/06 01:30:57;;;;;;;0.20;0.20;;;;;;;;;;5061564;28;20315;-63
2023/04/06 01:33:23;;;;;;;0.20;0.20;;;;;;;;;;5074836;28;20207;-64
2023/04/06 01:35:50;;;;;;;0.20;0.20;;;;;;;;;;5060719;28;20284;-63
2023/04/06 01:38:16;;;;;;;0.20;0.20;;;;;;;;;;5075534;28;20207;-63
2023/04/06 01:40:44;;;;;;;0.20;0.20;;;;;;;;;;5059709;28;20250;-64
2023/04/06 01:43:11;;;;;;;0.20;0.20;;;;;;;;;;5075087;28;20406;-63
2023/04/06 01:45:37;;;;;;;0.20;0.20;;;;;;;;;;5058634;28;20292;-64
2023/04/06 01:48:04;;;;;;;0.20;0.20;;;;;;;;;;5076979;28;20523;-63
2023/04/06 01:50:30;;;;;;;0.20;0.20;;;;;;;;;;5057655;28;20259;-64
2023/04/06 01:52:57;;;;;;;0.23;0.23;;;;;;;;;;5078223;28;20273;-64
2023/04/06 01:55:23;;;;;;;0.10;0.10;;;;;;;;;;5056540;28;20204;-64
2023/04/06 01:57:51;;;;;;;0.20;0.20;;;;;;;;;;5078803;28;20298;-63
2023/04/06 02:00:18;;;;;;;0.20;0.20;;;;;;;;;;5055338;28;20210;-64
2023/04/06 02:02:44;;;;;;;0.20;0.20;;;;;;;;;;5079541;28;20207;-64
2023/04/06 02:05:10;;;;;;;0.20;0.20;;;;;;;;;;5062313;28;20507;-65
2023/04/06 02:07:37;;;;;;;0.20;0.20;;;;;;;;;;5079649;28;20223;-64
2023/04/06 02:10:04;;;;;;;0.20;0.20;;;;;;;;;;5065160;28;20473;-63
2023/04/06 02:12:30;;;;;;;0.20;0.20;;;;;;;;;;5070136;28;20476;-64
2023/04/06 02:14:58;;;;;;;0.20;0.20;;;;;;;;;;5064696;28;20214;-63
2023/04/06 02:17:25;;;;;;;0.20;0.20;;;;;;;;;;5069913;28;20405;-64
2023/04/06 02:19:51;;;;;;;0.20;0.20;;;;;;;;;;5064573;28;20210;-63
2023/04/06 02:22:18;;;;;;;0.70;0.70;;;;;;;;;;5069894;28;20239;-63
2023/04/06 02:24:44;;;;;;;0.20;0.20;;;;;;;;;;5064787;28;20264;-64
2023/04/06 02:27:10;;;;;;;0.20;0.20;;;;;;;;;;5069669;28;20301;-63
2023/04/06 02:29:37;;;;;;;0.20;0.20;;;;;;;;;;5064372;28;20254;-63
2023/04/06 02:32:05;;;;;;;0.20;0.20;;;;;;;;;;5068596;28;20239;-63
2023/04/06 02:34:31;;;;;;;0.20;0.20;;;;;;;;;;5064949;28;20205;-64
2023/04/06 02:36:58;;;;;;;0.20;0.20;;;;;;;;;;5067927;28;20239;-63
2023/04/06 02:39:24;;;;;;;0.20;0.20;;;;;;;;;;5066038;28;20254;-64
2023/04/06 02:41:51;;;;;;;0.20;0.20;;;;;;;;;;5066808;28;20281;-64
2023/04/06 02:44:17;;;;;;;0.20;0.20;;;;;;;;;;5066445;28;20537;-63
2023/04/06 02:46:44;;;;;;;0.20;0.20;;;;;;;;;;5066101;28;20360;-64
2023/04/06 02:49:11;;;;;;;0.20;0.20;;;;;;;;;;5066835;28;20206;-63
2023/04/06 02:51:38;;;;;;;0.20;0.20;;;;;;;;;;5065274;28;20254;-64
2023/04/06 02:54:04;;;;;;;0.20;0.20;;;;;;;;;;5067750;28;20204;-63
2023/04/06 02:56:31;;;;;;;0.20;0.20;;;;;;;;;;5064343;28;20589;-64
2023/04/06 02:58:57;;;;;;;0.20;0.20;;;;;;;;;;5068438;28;20207;-64
2023/04/06 03:01:24;;;;;;;0.13;0.13;;;;;;;;;;5063426;28;20239;-63
2023/04/06 03:03:50;;;;;;;0.20;0.20;;;;;;;;;;5069445;28;20210;-63
2023/04/06 03:06:18;;;;;;;0.20;0.20;;;;;;;;;;5062575;28;20445;-64
2023/04/06 03:08:47;;;;;;;0.20;0.20;;;;;;;;;;5069983;28;20204;-63
2023/04/06 03:11:13;;;;;;;0.20;0.20;;;;;;;;;;5061875;28;20280;-64
2023/04/06 03:13:39;;;;;;;0.20;0.20;;;;;;;;;;5070757;28;20208;-63
2023/04/06 03:16:06;;;;;;;0.20;0.20;;;;;;;;;;5061084;28;20484;-64
2023/04/06 03:18:33;;;;;;;0.10;0.10;;;;;;;;;;5071503;28;20214;-64
2023/04/06 03:21:00;;;;;;;0.20;0.20;;;;;;;;;;5059502;28;20454;-63
2023/04/06 03:23:27;;;;;;;0.20;0.20;;;;;;;;;;5073025;28;20261;-64
2023/04/06 03:25:54;;;;;;;0.20;0.20;;;;;;;;;;5059104;28;20460;-64
2023/04/06 03:28:20;;;;;;;0.20;0.20;;;;;;;;;;5073388;28;20506;-64
2023/04/06 03:30:49;;;;;;;0.20;0.20;;;;;;;;;;5057748;28;20248;-63
2023/04/06 03:33:15;;;;;;;0.20;0.20;;;;;;;;;;5074171;28;20397;-64
2023/04/06 03:35:42;;;;;;;0.20;0.20;;;;;;;;;;5057572;28;20241;-64
2023/04/06 03:38:08;;;;;;;0.20;0.20;;;;;;;;;;5074505;28;20212;-64
2023/04/06 03:40:36;;;;;;;0.20;0.20;;;;;;;;;;5056756;28;20241;-63
2023/04/06 03:43:03;;;;;;;0.20;0.20;;;;;;;;;;5075241;28;20214;-64
2023/04/06 03:45:31;;;;;;;0.20;0.20;;;;;;;;;;5055757;28;20249;-64
2023/04/06 03:47:58;;;;;;;0.20;0.20;;;;;;;;;;5075868;28;20264;-63
2023/04/06 03:50:24;;;;;;;0.20;0.20;;;;;;;;;;5054889;28;20420;-64
2023/04/06 03:52:50;;;;;;;0.20;0.20;;;;;;;;;;5076947;28;20207;-63
2023/04/06 03:55:17;;;;;;;0.20;0.20;;;;;;;;;;5054342;28;20217;-64
2023/04/06 03:57:45;;;;;;;0.20;0.20;;;;;;;;;;5077389;28;20428;-64
2023/04/06 04:00:12;;;;;;;0.20;0.20;;;;;;;;;;5053187;28;20203;-65
2023/04/06 04:02:38;;;;;;;0.20;0.20;;;;;;;;;;5077833;28;20288;-63
2023/04/06 04:05:05;;;;;;;0.20;0.20;;;;;;;;;;5063007;28;20245;-63
2023/04/06 04:07:32;;;;;;;0.20;0.20;;;;;;;;;;5055339;28;20222;-63
2023/04/06 04:09:58;;;;;;;0.20;0.20;;;;;;;;;;5067212;28;20229;-63
2023/04/06 04:12:25;;;;;;;0.20;0.20;;;;;;;;;;5072388;28;20249;-64
2023/04/06 04:14:52;;;;;;;0.20;0.20;;;;;;;;;;5067171;28;20531;-63
2023/04/06 04:17:19;;;;;;;0.20;0.20;;;;;;;;;;5072321;28;20242;-63
2023/04/06 04:19:45;;;;;;;0.20;0.20;;;;;;;;;;5067114;28;20537;-63
2023/04/06 04:22:12;;;;;;;0.20;0.20;;;;;;;;;;5072125;28;20242;-63
2023/04/06 04:24:38;;;;;;;0.20;0.20;;;;;;;;;;5066989;28;20207;-64
2023/04/06 04:27:06;;;;;;;0.20;0.20;;;;;;;;;;5071785;28;20260;-63
2023/04/06 04:29:32;;;;;;;2.53;2.43;;;;;;;;;;5066929;28;20373;-63
2023/04/06 04:32:00;;;;;;;0.20;0.20;;;;;;;;;;5070721;28;20241;-63
2023/04/06 04:34:26;;;;;;;0.20;0.20;;;;;;;;;;5067768;28;20568;-63
2023/04/06 04:36:53;;;;;;;0.20;0.20;;;;;;;;;;5069858;28;20242;-64
2023/04/06 04:39:19;;;;;;;0.20;0.20;;;;;;;;;;5068485;28;20215;-63
2023/04/06 04:41:46;;;;;;;0.20;0.20;;;;;;;;;;5068989;28;20489;-64
2023/04/06 04:44:12;;;;;;;0.20;0.20;;;;;;;;;;5069019;28;20206;-63
2023/04/06 04:46:38;;;;;;;0.20;0.20;;;;;;;;;;5067914;28;20497;-63
2023/04/06 04:49:06;;;;;;;0.20;0.20;;;;;;;;;;5069830;28;20207;-64
2023/04/06 04:51:33;;;;;;;0.20;0.20;;;;;;;;;;5066838;28;20253;-63
2023/04/06 04:54:00;;;;;;;0.20;0.20;;;;;;;;;;5070820;28;20206;-63
2023/04/06 04:56:27;;;;;;;0.20;0.20;;;;;;;;;;5066059;28;20521;-64
2023/04/06 04:58:53;;;;;;;0.20;0.20;;;;;;;;;;5071168;28;20233;-64
2023/04/06 05:01:20;;;;;;;0.20;0.20;;;;;;;;;;5065154;28;20241;-64
2023/04/06 05:03:46;;;;;;;0.20;0.20;;;;;;;;;;5072318;28;20393;-64
2023/04/06 05:06:14;;;;;;;0.20;0.20;;;;;;;;;;5064213;28;20249;-63
2023/04/06 05:08:41;;;;;;;0.20;0.20;;;;;;;;;;5072823;28;20218;-64
2023/04/06 05:11:07;;;;;;;0.20;0.20;;;;;;;;;;5063107;28;20342;-63
2023/04/06 05:13:34;;;;;;;0.20;0.20;;;;;;;;;;5073551;28;20206;-63
2023/04/06 05:16:00;;;;;;;0.20;0.20;;;;;;;;;;5062383;28;20245;-64
2023/04/06 05:18:27;;;;;;;0.20;0.20;;;;;;;;;;5074419;28;20205;-63
2023/04/06 05:20:53;;;;;;;0.20;0.20;;;;;;;;;;5061433;28;20241;-63
2023/04/06 05:23:21;;;;;;;0.20;0.20;;;;;;;;;;5075298;28;20372;-64
2023/04/06 05:25:48;;;;;;;0.20;0.20;;;;;;;;;;5060592;28;20240;-64
2023/04/06 05:28:15;;;;;;;0.20;0.20;;;;;;;;;;5075635;28;20198;-64
2023/04/06 05:30:42;;;;;;;0.20;0.20;;;;;;;;;;5059807;28;20244;-63
2023/04/06 05:33:09;;;;;;;0.20;0.20;;;;;;;;;;5076481;28;20205;-64
2023/04/06 05:35:35;;;;;;;0.20;0.20;;;;;;;;;;5059091;28;20245;-64
2023/04/06 05:38:02;;;;;;;0.20;0.20;;;;;;;;;;5077224;28;20269;-64
2023/04/06 05:40:30;;;;;;;0.20;0.20;;;;;;;;;;5057712;28;20254;-63
2023/04/06 05:42:56;;;;;;;0.20;0.20;;;;;;;;;;5078266;28;20231;-64
2023/04/06 05:45:22;;;;;;;0.20;0.20;;;;;;;;;;5056802;28;20228;-64
2023/04/06 05:47:49;;;;;;;0.20;0.20;;;;;;;;;;5078805;28;20206;-64
2023/04/06 05:50:16;;;;;;;0.20;0.20;;;;;;;;;;5055969;28;20267;-64
2023/04/06 05:52:45;;;;;;;0.20;0.20;;;;;;;;;;5079509;28;20233;-63
2023/04/06 05:55:11;;;;;;;0.20;0.20;;;;;;;;;;5055233;28;20206;-64
2023/04/06 05:57:39;;;;;;;0.20;0.20;;;;;;;;;;5080089;28;20237;-63
2023/04/06 06:00:08;;;;;;;0.20;0.20;;;;;;;;;;5065266;28;20205;-64
2023/04/06 06:02:35;;;;;;;0.20;0.20;;;;;;;;;;5053701;28;20220;-63
2023/04/06 06:05:01;;;;;;;0.20;0.20;;;;;;;;;;5064835;28;20205;-63
2023/04/06 06:07:28;;;;;;;0.20;0.20;;;;;;;;;;5070341;28;20236;-63
2023/04/06 06:09:57;;;;;;;0.20;0.20;;;;;;;;;;5065131;28;20404;-63
2023/04/06 06:12:23;;;;;;;0.20;0.20;;;;;;;;;;5070083;28;20295;-63
2023/04/06 06:14:51;;;;;;;0.20;0.20;;;;;;;;;;5065053;28;20248;-63
2023/04/06 06:17:17;;;;;;;0.20;0.20;;;;;;;;;;5070055;28;20238;-63
2023/04/06 06:19:44;;;;;;;0.20;0.20;;;;;;;;;;5064815;28;20404;-63
2023/04/06 06:22:10;;;;;;;0.20;0.20;;;;;;;;;;5069924;28;20249;-63
2023/04/06 06:24:37;;;;;;;0.20;0.20;;;;;;;;;;5064526;28;20281;-64
2023/04/06 06:27:03;;;;;;;0.20;0.20;;;;;;;;;;5069319;28;20263;-64
2023/04/06 06:29:30;;;;;;;0.20;0.20;;;;;;;;;;5064252;28;20206;-63
2023/04/06 06:31:58;;;;;;;0.20;0.20;;;;;;;;;;5068009;28;20246;-64
2023/04/06 06:34:25;;;;;;;0.20;0.20;;;;;;;;;;5065567;28;20219;-64
2023/04/06 06:36:54;;;;;;;0.20;0.20;;;;;;;;;;5067448;28;20297;-68
2023/04/06 06:39:21;;;;;;;0.20;0.20;;;;;;;;;;5065951;28;20515;-65
2023/04/06 06:41:47;;;;;;;0.20;0.20;;;;;;;;;;5066982;28;20292;-64
2023/04/06 06:44:14;;;;;;;0.20;0.20;;;;;;;;;;5067048;28;20214;-63
2023/04/06 06:46:40;;;;;;;0.20;0.20;;;;;;;;;;5065887;28;20300;-64
2023/04/06 06:49:08;;;;;;;0.30;0.30;;;;;;;;;;5067554;28;20256;-72
2023/04/06 06:51:35;;;;;;;0.20;0.20;;;;;;;;;;5065119;28;20466;-65
2023/04/06 06:54:01;;;;;;;0.20;0.20;;;;;;;;;;5068573;28;20214;-63
2023/04/06 06:56:28;;;;;;;0.40;0.40;;;;;;;;;;5063922;28;20248;-64
2023/04/06 06:58:54;;;;;;;4.33;2.67;;;;;;;;;;5069334;28;20401;-66
2023/04/06 07:01:20;;;;;;;0.20;0.20;;;;;;;;;;5063053;28;20235;-64
2023/04/06 07:03:47;;;;;;;0.23;0.23;;;;;;;;;;5069892;28;20214;-63
2023/04/06 07:06:15;;;;;;;0.33;0.33;;;;;;;;;;5062264;28;20429;-63
2023/04/06 07:08:41;;;;;;;0.20;0.20;;;;;;;;;;5070753;28;20248;-64
2023/04/06 07:11:07;;;;;;;0.20;0.20;;;;;;;;;;5061446;28;20480;-63
2023/04/06 07:13:34;;;;;;;0.20;0.20;;;;;;;;;;5071627;28;20207;-64
2023/04/06 07:16:00;;;;;;;0.20;0.20;;;;;;;;;;5060277;28;20238;-64
2023/04/06 07:18:27;;;;;;;0.87;0.87;;;;;;;;;;5072320;28;20215;-63
2023/04/06 07:20:53;;;;;;;0.20;0.20;;;;;;;;;;5059221;28;20281;-64
2023/04/06 07:23:21;;;;;;;0.20;0.20;;;;;;;;;;5073252;28;20204;-64
2023/04/06 07:25:50;;;;;;;0.20;0.20;;;;;;;;;;5058513;28;20241;-64
2023/04/06 07:28:17;;;;;;;0.20;0.20;;;;;;;;;;5073478;28;20246;-64
2023/04/06 07:30:43;;;;;;;1.63;1.60;;;;;;;;;;5058167;28;20238;-64
2023/04/06 07:33:10;;;;;;;0.20;0.20;;;;;;;;;;5074283;28;20207;-64
2023/04/06 07:35:36;;;;;;;0.20;0.20;;;;;;;;;;5056924;28;20284;-64
2023/04/06 07:38:03;;;;;;;0.20;0.20;;;;;;;;;;5075519;28;20461;-63
2023/04/06 07:40:31;;;;;;;0.20;0.20;;;;;;;;;;5056320;28;20249;-64
2023/04/06 07:42:58;;;;;;;0.20;0.20;;;;;;;;;;5080382;28;20265;-63
2023/04/06 07:45:24;;;;;;;0.20;0.20;;;;;;;;;;5059343;28;20215;-63
2023/04/06 07:47:51;;;;;;;0.20;0.20;;;;;;;;;;5080950;28;20207;-63
2023/04/06 07:50:17;;;;;;;0.20;0.20;;;;;;;;;;5058550;28;20211;-63
2023/04/06 07:52:44;;;;;;;0.20;0.20;;;;;;;;;;5081798;28;20274;-63
2023/04/06 07:55:10;;;;;;;0.20;0.20;;;;;;;;;;5057759;28;20207;-64
2023/04/06 07:57:38;;;;;;;0.20;0.20;;;;;;;;;;5082346;28;20225;-64
2023/04/06 08:00:05;;;;;;;0.50;0.50;;;;;;;;;;5067547;28;20502;-63
2023/04/06 08:02:32;;;;;;;0.20;0.20;;;;;;;;;;5072705;28;20239;-64
2023/04/06 08:04:58;;;;;;;0.20;0.20;;;;;;;;;;5067245;28;20207;-63
2023/04/06 08:07:25;;;;;;;0.20;0.20;;;;;;;;;;5072648;28;20242;-64
2023/04/06 08:09:52;;;;;;;0.20;0.20;;;;;;;;;;5067092;28;20204;-64
2023/04/06 08:12:19;;;;;;;0.20;0.20;;;;;;;;;;5072421;28;20300;-63
2023/04/06 08:14:47;;;;;;;0.20;0.20;;;;;;;;;;5066991;28;20204;-64
2023/04/06 08:17:13;;;;;;;0.17;0.17;;;;;;;;;;5072326;28;20243;-63
2023/04/06 08:19:40;;;;;;;0.10;0.10;;;;;;;;;;5066951;28;20211;-64
2023/04/06 08:22:06;;;;;;;0.20;0.20;;;;;;;;;;5072174;28;20562;-65
2023/04/06 08:24:33;;;;;;;0.20;0.20;;;;;;;;;;5066901;28;20247;-64
2023/04/06 08:26:59;;;;;;;0.20;0.20;;;;;;;;;;5071126;28;20297;-64
2023/04/06 08:29:26;;;;;;;0.20;0.20;;;;;;;;;;5067649;28;20212;-63
2023/04/06 08:31:54;;;;;;;0.20;0.20;;;;;;;;;;5070202;28;20325;-64
2023/04/06 08:34:21;;;;;;;0.10;0.10;;;;;;;;;;5068675;28;20205;-64
2023/04/06 08:36:47;;;;;;;0.17;0.17;;;;;;;;;;5069229;28;20239;-64
2023/04/06 08:39:14;;;;;;;0.10;0.10;;;;;;;;;;5069014;28;20200;-64
2023/04/06 08:41:42;;;;;;;0.20;0.20;;;;;;;;;;5068560;28;20237;-63
2023/04/06 08:44:09;;;;;;;0.20;0.20;;;;;;;;;;5069586;28;20212;-63
2023/04/06 08:46:35;;;;;;;0.10;0.10;;;;;;;;;;5067533;28;20244;-63
2023/04/06 08:49:06;;;;;;;0.20;0.20;;;;;;;;;;5070485;28;20209;-64
2023/04/06 08:51:32;;;;;;;0.10;0.10;;;;;;;;;;5066682;28;20591;-64
2023/04/06 08:54:00;;;;;;;0.13;0.13;;;;;;;;;;5071143;28;20210;-63
2023/04/06 08:56:28;;;;;;;0.10;0.10;;;;;;;;;;5066288;28;20548;-64
2023/04/06 08:58:55;;;;;;;0.10;0.10;;;;;;;;;;5071582;28;20252;-64
2023/04/06 09:01:22;;;;;;;0.10;0.10;;;;;;;;;;5065590;28;20559;-64
2023/04/06 09:03:49;;;;;;;0.10;0.10;;;;;;;;;;5071785;28;20250;-64
2023/04/06 09:06:17;;;;;;;0.10;0.10;;;;;;;;;;5064493;28;20242;-64
2023/04/06 09:08:44;;;;;;;0.10;0.10;;;;;;;;;;5072564;28;20272;-62
2023/04/06 09:11:11;;;;;;;0.10;0.10;;;;;;;;;;5063692;28;20239;-62
2023/04/06 09:13:45;;;;;;;0.10;0.10;;;;;;;;;;5073207;28;20217;-61
2023/04/06 09:16:12;;;;;;;0.10;0.10;;;;;;;;;;5064080;28;20242;-62
2023/04/06 09:18:38;;;;;;;0.10;0.10;;;;;;;;;;5073021;28;20209;-62
2023/04/06 09:21:06;;;;;;;0.10;0.10;;;;;;;;;;5062815;28;20241;-62
2023/04/06 09:23:34;;;;;;;0.05;0.05;;;;;;;;;;5073742;28;20208;-62
2023/04/06 09:26:10;;;;;;;0.00;0.00;;;;;;;;;;5062150;28;20258;-62
2023/04/06 09:28:44;;;;;;;0.10;0.10;;;;;;;;;;5073079;28;20206;-62
2023/04/06 09:31:11;;;;;;;0.10;0.10;;;;;;;;;;5063348;28;20488;-62
2023/04/06 09:33:38;;;;;;;0.00;0.00;;;;;;;;;;5072976;28;20377;-62
2023/04/06 09:36:05;;;;;;;0.10;0.10;;;;;;;;;;5062561;28;20272;-62
2023/04/06 09:38:31;;;;;;;0.00;0.00;;;;;;;;;;5073244;28;20204;-62
2023/04/06 09:40:59;;;;;;;0.05;0.05;;;;;;;;;;5061633;28;20269;-62
2023/04/06 09:43:26;;;;;;;0.00;0.00;;;;;;;;;;5074294;28;20275;-62
2023/04/06 09:45:53;;;;;;;0.00;0.00;;;;;;;;;;5060861;28;20255;-62
2023/04/06 09:48:20;;;;;;;0.08;0.08;;;;;;;;;;5074795;28;20243;-62
2023/04/06 09:50:47;;;;;;;0.08;0.08;;;;;;;;;;5060200;28;20438;-62
2023/04/06 09:53:14;;;;;;;0.00;0.00;;;;;;;;;;5075274;28;20539;-62
2023/04/06 09:55:41;;;;;;;0.10;0.10;;;;;;;;;;5058968;28;20238;-62
2023/04/06 09:58:11;;;;;;;0.10;0.10;;;;;;;;;;5076169;28;20206;-62
2023/04/06 10:00:43;;;;;;;0.00;0.00;;;;;;;;;;5058613;28;20265;-63
2023/04/06 10:03:15;;;;;;;0.10;0.10;;;;;;;;;;5075075;28;20207;-62
2023/04/06 10:05:44;;;;;;;0.10;0.10;;;;;;;;;;5058965;28;20241;-62
2023/04/06 10:08:11;;;;;;;0.05;0.05;;;;;;;;;;5075676;28;20211;-62
2023/04/06 10:10:38;;;;;;;0.22;0.22;;;;;;;;;;5058646;28;20258;-63
2023/04/06 10:13:04;;;;;;;0.40;0.40;;;;;;;;;;5076370;28;20244;-62
2023/04/06 10:15:32;;;;;;;0.15;0.15;;;;;;;;;;5057502;28;20246;-63
2023/04/06 10:17:59;;;;;;;0.00;0.00;;;;;;;;;;5077107;28;20208;-62
2023/04/06 10:20:28;;;;;;;0.10;0.10;;;;;;;;;;5056793;28;20246;-63
2023/04/06 10:22:57;;;;;;;0.00;0.00;;;;;;;;;;5077384;28;20200;-63
2023/04/06 10:25:29;;;;;;;0.10;0.10;;;;;;;;;;5056168;28;20275;-63
2023/04/06 10:28:02;;;;;;;0.00;0.00;;;;;;;;;;5077342;28;20427;-63
2023/04/06 10:30:29;;;;;;;0.00;0.00;;;;;;;;;;5056848;28;20263;-63
2023/04/06 10:32:57;;;;;;;0.10;0.10;;;;;;;;;;5077042;28;20228;-63
2023/04/06 10:35:25;;;;;;;0.10;0.10;;;;;;;;;;5056109;28;20330;-63
2023/04/06 10:37:52;;;;;;;0.00;0.00;;;;;;;;;;5077548;28;20216;-63
2023/04/06 10:40:19;;;;;;;0.10;0.10;;;;;;;;;;5055591;28;20261;-63
2023/04/06 10:42:46;;;;;;;0.00;0.00;;;;;;;;;;5077955;28;20210;-62
2023/04/06 10:45:20;;;;;;;0.00;0.00;;;;;;;;;;5054299;28;20208;-63
2023/04/06 10:47:46;;;;;;;0.00;0.00;;;;;;;;;;5078117;28;20236;-63
2023/04/06 10:50:15;;;;;;;0.00;0.00;;;;;;;;;;5054559;28;20204;-63
2023/04/06 10:52:44;;;;;;;0.43;0.43;;;;;;;;;;5078627;28;20450;-63
2023/04/06 10:55:11;;;;;;;0.10;0.10;;;;;;;;;;5054011;28;20204;-63
2023/04/06 10:57:38;;;;;;;0.10;0.10;;;;;;;;;;5078730;28;20487;-63
2023/04/06 11:00:05;;;;;;;0.32;0.32;;;;;;;;;;5064140;28;20203;-63
2023/04/06 11:02:32;;;;;;;0.00;0.00;;;;;;;;;;5069217;28;20236;-63
2023/04/06 11:04:59;;;;;;;0.05;0.05;;;;;;;;;;5063875;28;20524;-63
2023/04/06 11:07:28;;;;;;;0.00;0.00;;;;;;;;;;5069211;28;20474;-63
2023/04/06 11:09:55;;;;;;;0.00;0.00;;;;;;;;;;5063639;28;20211;-63
2023/04/06 11:12:22;;;;;;;0.00;0.00;;;;;;;;;;5069013;28;20231;-63
2023/04/06 11:14:53;;;;;;;0.00;0.00;;;;;;;;;;5063447;28;20231;-63
2023/04/06 11:17:26;;;;;;;0.00;0.00;;;;;;;;;;5068984;28;20239;-63
2023/04/06 11:19:52;;;;;;;0.10;0.10;;;;;;;;;;5063861;28;20192;-63
2023/04/06 11:22:19;;;;;;;0.00;0.00;;;;;;;;;;5068914;28;20242;-63
2023/04/06 11:24:48;;;;;;;0.00;0.00;;;;;;;;;;5063851;28;20207;-63
2023/04/06 11:27:15;;;;;;;0.00;0.00;;;;;;;;;;5068916;28;20262;-63
2023/04/06 11:29:42;;;;;;;0.32;0.32;;;;;;;;;;5063431;28;20271;-63
2023/04/06 11:32:09;;;;;;;0.00;0.00;;;;;;;;;;5068867;28;20246;-63
2023/04/06 11:34:36;;;;;;;0.00;0.00;;;;;;;;;;5063426;28;20208;-63
2023/04/06 11:37:05;;;;;;;0.00;0.00;;;;;;;;;;5068228;28;20239;-63
2023/04/06 11:39:32;;;;;;;0.00;0.00;;;;;;;;;;5063627;28;20246;-63
2023/04/06 11:42:02;;;;;;;0.00;0.00;;;;;;;;;;5067378;28;20243;-63
2023/04/06 11:44:30;;;;;;;0.00;0.00;;;;;;;;;;5064338;28;20395;-64
2023/04/06 11:46:58;;;;;;;0.05;0.05;;;;;;;;;;5067217;28;20239;-63
2023/04/06 11:49:27;;;;;;;0.28;0.28;;;;;;;;;;5064476;28;20204;-64
2023/04/06 11:51:53;;;;;;;0.00;0.00;;;;;;;;;;5066659;28;20786;-63
2023/04/06 11:54:30;;;;;;;0.00;0.00;;;;;;;;;;5065327;28;20508;-63
2023/04/06 11:56:56;;;;;;;0.00;0.00;;;;;;;;;;5067080;28;20590;-63
2023/04/06 11:59:24;;;;;;;0.47;0.47;;;;;;;;;;5064800;28;20238;-63
2023/04/06 12:01:51;;;;;;;0.10;0.10;;;;;;;;;;5065646;28;20285;-63
2023/04/06 12:04:18;;;;;;;0.10;0.10;;;;;;;;;;5065633;28;20204;-63
2023/04/06 12:06:45;;;;;;;0.00;0.00;;;;;;;;;;5065573;28;20285;-63
2023/04/06 12:09:11;;;;;;;0.00;0.00;;;;;;;;;;5065872;28;20212;-63
2023/04/06 12:11:37;;;;;;;0.00;0.00;;;;;;;;;;5064508;28;20258;-64
2023/04/06 12:14:07;;;;;;;0.00;0.00;;;;;;;;;;5067212;28;20394;-63
2023/04/06 12:16:35;;;;;;;0.00;0.00;;;;;;;;;;5064014;28;20241;-63
2023/04/06 12:19:01;;;;;;;0.00;0.00;;;;;;;;;;5067272;28;20271;-63
2023/04/06 12:21:29;;;;;;;0.00;0.00;;;;;;;;;;5063183;28;20240;-63
2023/04/06 12:23:55;;;;;;;0.00;0.00;;;;;;;;;;5067836;28;20231;-63
2023/04/06 12:26:22;;;;;;;0.00;0.00;;;;;;;;;;5062430;28;20289;-64
2023/04/06 12:28:48;;;;;;;0.00;0.00;;;;;;;;;;5072556;28;20246;-63
2023/04/06 12:31:15;;;;;;;0.10;0.10;;;;;;;;;;5064973;28;20243;-63
2023/04/06 12:33:44;;;;;;;0.00;0.00;;;;;;;;;;5073441;28;20204;-63
2023/04/06 12:36:12;;;;;;;0.00;0.00;;;;;;;;;;5064515;28;20307;-64
2023/04/06 12:38:39;;;;;;;0.03;0.03;;;;;;;;;;5073800;28;20559;-63
2023/04/06 12:41:06;;;;;;;0.00;0.00;;;;;;;;;;5063676;28;20254;-63
2023/04/06 12:43:32;;;;;;;0.00;0.00;;;;;;;;;;5074465;28;20415;-64
2023/04/06 12:45:59;;;;;;;0.00;0.00;;;;;;;;;;5062726;28;20269;-64
2023/04/06 12:48:27;;;;;;;0.00;0.00;;;;;;;;;;5075309;28;20423;-63
2023/04/06 12:51:01;;;;;;;0.00;0.00;;;;;;;;;;5061404;28;20239;-63
2023/04/06 12:53:28;;;;;;;0.00;0.00;;;;;;;;;;5075200;28;20406;-63
2023/04/06 12:55:55;;;;;;;0.00;0.00;;;;;;;;;;5061830;28;20246;-63
2023/04/06 12:58:22;;;;;;;0.00;0.00;;;;;;;;;;5075554;28;20275;-63
2023/04/06 13:00:49;;;;;;;0.20;0.20;;;;;;;;;;5061142;28;20239;-63
2023/04/06 13:03:15;;;;;;;0.00;0.00;;;;;;;;;;5076172;28;20397;-63
2023/04/06 13:05:44;;;;;;;0.00;0.00;;;;;;;;;;5060250;28;20288;-63
2023/04/06 13:08:12;;;;;;;0.00;0.00;;;;;;;;;;5076771;28;20204;-63
2023/04/06 13:10:38;;;;;;;0.00;0.00;;;;;;;;;;5059661;28;20243;-63
2023/04/06 13:13:05;;;;;;;0.00;0.00;;;;;;;;;;5077321;28;20204;-63
2023/04/06 13:15:32;;;;;;;0.10;0.10;;;;;;;;;;5058709;28;20348;-63
2023/04/06 13:17:59;;;;;;;0.00;0.00;;;;;;;;;;5078044;28;20235;-63
2023/04/06 13:20:25;;;;;;;0.00;0.00;;;;;;;;;;5057996;28;20511;-63
2023/04/06 13:22:51;;;;;;;0.08;0.08;;;;;;;;;;5078899;28;20263;-63
2023/04/06 13:25:19;;;;;;;0.10;0.10;;;;;;;;;;5056657;28;20204;-63
2023/04/06 13:27:48;;;;;;;0.00;0.00;;;;;;;;;;5079699;28;20482;-63
2023/04/06 13:30:15;;;;;;;0.00;0.00;;;;;;;;;;5056131;28;20212;-63
2023/04/06 13:32:42;;;;;;;0.17;0.17;;;;;;;;;;5080079;28;20234;-63
2023/04/06 13:35:09;;;;;;;0.03;0.03;;;;;;;;;;5055636;28;20414;-63
2023/04/06 13:37:36;;;;;;;0.00;0.00;;;;;;;;;;5080377;28;20391;-63
2023/04/06 13:40:03;;;;;;;0.00;0.00;;;;;;;;;;5064833;28;20253;-63
2023/04/06 13:42:31;;;;;;;0.00;0.00;;;;;;;;;;5070733;28;20477;-63
2023/04/06 13:44:57;;;;;;;0.00;0.00;;;;;;;;;;5065402;28;20306;-63
2023/04/06 13:47:24;;;;;;;0.00;0.00;;;;;;;;;;5070758;28;20424;-63
2023/04/06 13:49:52;;;;;;;0.00;0.00;;;;;;;;;;5065524;28;20499;-69
2023/04/06 13:52:19;;;;;;;0.00;0.00;;;;;;;;;;5070421;28;20243;-69
2023/04/06 13:54:45;;;;;;;0.00;0.00;;;;;;;;;;5065083;28;20203;-69
2023/04/06 13:57:12;;;;;;;0.10;0.10;;;;;;;;;;5070222;28;20306;-69
2023/04/06 13:59:47;;;;;;;0.00;0.00;;;;;;;;;;5065714;28;20235;-69
2023/04/06 14:02:14;;;;;;;0.00;0.00;;;;;;;;;;5070587;28;20384;-68
2023/04/06 14:04:40;;;;;;;0.00;0.00;;;;;;;;;;5064924;28;20227;-67
2023/04/06 14:07:07;;;;;;;0.00;0.00;;;;;;;;;;5070160;28;20266;-67
2023/04/06 14:09:34;;;;;;;0.10;0.10;;;;;;;;;;5065180;28;20272;-67
2023/04/06 14:12:00;;;;;;;0.00;0.00;;;;;;;;;;5069218;28;20265;-68
2023/04/06 14:14:27;;;;;;;0.05;0.05;;;;;;;;;;5065738;28;20396;-67
2023/04/06 14:16:55;;;;;;;3.05;2.85;;;;;;;;;;5068144;28;20497;-67
2023/04/06 14:19:21;;;;;;;0.00;0.00;;;;;;;;;;5066434;28;20206;-68
2023/04/06 14:21:48;;;;;;;0.00;0.00;;;;;;;;;;5067318;28;20303;-67
2023/04/06 14:24:15;;;;;;;0.10;0.10;;;;;;;;;;5066808;28;20292;-67
2023/04/06 14:26:42;;;;;;;0.00;0.00;;;;;;;;;;5066566;28;20307;-68
2023/04/06 14:29:09;;;;;;;0.10;0.10;;;;;;;;;;5067845;28;20282;-68
2023/04/06 14:31:36;;;;;;;0.10;0.10;;;;;;;;;;5065461;28;20258;-67
2023/04/06 14:34:04;;;;;;;3.58;3.35;;;;;;;;;;5068255;28;20215;-67
2023/04/06 14:36:36;;;;;;;0.10;0.10;;;;;;;;;;5064843;28;20265;-67
2023/04/06 14:39:02;;;;;;;0.10;0.10;;;;;;;;;;5068485;28;20196;-68
2023/04/06 14:41:28;;;;;;;0.10;0.10;;;;;;;;;;5064288;28;20282;-68